createdAt,value
2023-04-17T00:01:03.878Z,24.80
2023-04-17T00:03:33.300Z,23.90
2023-04-17T00:06:03.583Z,25.33
2023-04-17T00:08:32.938Z,20.60
2023-04-17T00:11:07.772Z,21.55
2023-04-17T00:13:37.044Z,21.85
2023-04-17T00:16:10.690Z,20.88
2023-04-17T00:18:39.245Z,21.20
2023-04-17T00:21:12.392Z,22.02
2023-04-17T00:23:40.615Z,22.45
2023-04-17T00:26:08.715Z,20.15
2023-04-17T00:28:37.514Z,19.05
2023-04-17T00:31:07.195Z,19.45
2023-04-17T00:33:36.093Z,19.30
2023-04-17T00:36:04.588Z,20.02
2023-04-17T00:38:32.647Z,19.75
2023-04-17T00:41:00.818Z,18.23
2023-04-17T00:43:29.553Z,19.70
2023-04-17T00:45:58.054Z,19.23
2023-04-17T00:48:27.848Z,19.30
2023-04-17T00:50:56.009Z,18.65
2023-04-17T00:53:24.241Z,18.27
2023-04-17T00:55:56.237Z,21.55
2023-04-17T00:58:24.715Z,19.08
2023-04-17T01:00:53.575Z,21.75
2023-04-17T01:03:23.193Z,20.73
2023-04-17T01:05:53.502Z,21.85
2023-04-17T01:08:21.589Z,20.48
2023-04-17T01:10:49.773Z,21.88
2023-04-17T01:13:18.070Z,21.33
2023-04-17T01:15:47.255Z,20.65
2023-04-17T01:18:15.457Z,21.27
2023-04-17T01:20:43.529Z,22.23
2023-04-17T01:23:13.318Z,24.50
2023-04-17T01:25:43.131Z,20.98
2023-04-17T01:28:11.174Z,21.75
2023-04-17T01:30:39.490Z,22.50
2023-04-17T01:33:09.509Z,23.15
2023-04-17T01:35:38.087Z,21.15
2023-04-17T01:38:06.384Z,19.95
2023-04-17T01:40:34.470Z,20.60
2023-04-17T01:43:06.456Z,22.73
2023-04-17T01:45:35.761Z,20.77
2023-04-17T01:48:04.114Z,22.00
2023-04-17T01:50:32.331Z,22.17
2023-04-17T01:53:00.412Z,19.13
2023-04-17T01:55:28.443Z,21.50
2023-04-17T01:57:56.622Z,20.90
2023-04-17T02:00:26.393Z,20.55
2023-04-17T02:02:55.068Z,23.35
2023-04-17T02:05:24.496Z,19.58
2023-04-17T02:07:52.561Z,21.75
2023-04-17T02:10:20.687Z,18.42
2023-04-17T02:12:48.876Z,21.02
2023-04-17T02:15:17.056Z,18.58
2023-04-17T02:17:47.458Z,20.77
2023-04-17T02:20:15.678Z,20.15
2023-04-17T02:22:44.393Z,20.30
2023-04-17T02:25:12.587Z,19.95
2023-04-17T02:27:40.813Z,19.35
2023-04-17T02:30:09.799Z,19.70
2023-04-17T02:32:38.230Z,20.63
2023-04-17T02:35:09.583Z,19.60
2023-04-17T02:37:37.963Z,19.83
2023-04-17T02:40:07.942Z,20.48
2023-04-17T02:42:36.117Z,18.92
2023-04-17T02:45:05.493Z,22.45
2023-04-17T02:47:33.829Z,21.08
2023-04-17T02:50:05.866Z,19.98
2023-04-17T02:52:41.335Z,20.55
2023-04-17T02:55:12.128Z,19.23
2023-04-17T02:57:42.167Z,21.42
2023-04-17T03:00:13.976Z,18.25
2023-04-17T03:02:42.327Z,20.30
2023-04-17T03:05:11.702Z,17.75
2023-04-17T03:07:41.728Z,19.42
2023-04-17T03:10:11.025Z,19.73
2023-04-17T03:12:41.164Z,20.25
2023-04-17T03:15:10.259Z,20.77
2023-04-17T03:17:38.522Z,20.15
2023-04-17T03:20:08.278Z,20.30
2023-04-17T03:22:36.888Z,21.60
2023-04-17T03:25:09.456Z,21.80
2023-04-17T03:27:45.472Z,19.95
2023-04-17T03:30:17.936Z,20.30
2023-04-17T03:32:49.448Z,21.15
2023-04-17T03:35:17.669Z,21.08
2023-04-17T03:37:45.733Z,18.48
2023-04-17T03:40:16.282Z,21.38
2023-04-17T03:42:45.905Z,21.50
2023-04-17T03:45:14.805Z,20.70
2023-04-17T03:47:42.900Z,20.92
2023-04-17T03:50:11.907Z,19.83
2023-04-17T03:52:46.539Z,19.95
2023-04-17T03:55:17.928Z,19.85
2023-04-17T03:57:48.554Z,20.35
2023-04-17T04:00:17.638Z,19.00
2023-04-17T04:02:52.249Z,20.65
2023-04-17T04:05:25.732Z,20.23
2023-04-17T04:07:55.044Z,20.70
2023-04-17T04:10:32.827Z,19.85
2023-04-17T04:13:01.360Z,22.60
2023-04-17T04:15:32.947Z,22.17
2023-04-17T04:18:04.112Z,20.30
2023-04-17T04:20:32.771Z,23.30
2023-04-17T04:23:13.991Z,22.08
2023-04-17T04:25:43.669Z,22.70
2023-04-17T04:28:38.323Z,21.35
2023-04-17T04:31:10.056Z,19.23
2023-04-17T04:33:41.481Z,21.63
2023-04-17T04:36:09.966Z,20.08
2023-04-17T04:38:38.402Z,19.95
2023-04-17T04:41:17.562Z,21.73
2023-04-17T04:43:46.091Z,19.52
2023-04-17T04:46:14.334Z,20.40
2023-04-17T04:48:46.770Z,20.35
2023-04-17T04:51:15.193Z,19.33
2023-04-17T04:53:44.302Z,20.38
2023-04-17T04:56:14.271Z,21.77
2023-04-17T04:58:44.996Z,19.13
2023-04-17T05:01:13.909Z,18.30
2023-04-17T05:03:46.437Z,20.65
2023-04-17T05:06:21.311Z,20.08
2023-04-17T05:08:54.737Z,18.60
2023-04-17T05:11:23.114Z,17.65
2023-04-17T05:13:52.702Z,18.45
2023-04-17T05:16:26.473Z,19.40
2023-04-17T05:18:57.373Z,19.73
2023-04-17T05:21:45.843Z,20.17
2023-04-17T05:24:14.465Z,19.75
2023-04-17T05:26:42.736Z,20.08
2023-04-17T05:29:12.466Z,18.65
2023-04-17T05:31:41.563Z,20.60
2023-04-17T05:34:21.709Z,19.05
2023-04-17T05:36:50.537Z,19.73
2023-04-17T05:39:19.299Z,16.90
2023-04-17T05:41:47.562Z,19.30
2023-04-17T05:44:16.930Z,21.40
2023-04-17T05:46:45.314Z,20.08
2023-04-17T05:49:13.500Z,18.42
2023-04-17T05:51:41.586Z,18.52
2023-04-17T05:54:09.906Z,19.10
2023-04-17T05:56:39.724Z,18.15
2023-04-17T05:59:07.948Z,17.45
2023-04-17T06:01:37.892Z,16.95
2023-04-17T06:04:06.867Z,18.10
2023-04-17T06:06:35.350Z,18.27
2023-04-17T06:09:07.330Z,16.70
2023-04-17T06:11:35.381Z,18.95
2023-04-17T06:14:03.901Z,17.25
2023-04-17T06:16:32.742Z,18.73
2023-04-17T06:19:02.496Z,21.58
2023-04-17T06:21:31.633Z,19.20
2023-04-17T06:24:01.806Z,18.40
2023-04-17T06:26:30.064Z,17.70
2023-04-17T06:28:58.241Z,17.52
2023-04-17T06:31:27.944Z,19.23
2023-04-17T06:33:56.057Z,17.67
2023-04-17T06:36:29.834Z,16.90
2023-04-17T06:38:59.656Z,18.73
2023-04-17T06:41:29.626Z,18.95
2023-04-17T06:43:57.895Z,14.75
2023-04-17T06:46:28.853Z,14.20
2023-04-17T06:48:59.517Z,17.73
2023-04-17T06:51:31.312Z,18.00
2023-04-17T06:53:59.363Z,14.27
2023-04-17T06:56:27.641Z,15.75
2023-04-17T06:58:57.916Z,17.92
2023-04-17T07:01:27.865Z,17.88
2023-04-17T07:03:56.046Z,19.00
2023-04-17T07:06:24.473Z,17.88
2023-04-17T07:08:55.618Z,16.30
2023-04-17T07:11:23.940Z,16.27
2023-04-17T07:13:52.232Z,15.45
2023-04-17T07:16:23.024Z,15.27
2023-04-17T07:18:51.517Z,16.83
2023-04-17T07:21:19.870Z,16.67
2023-04-17T07:23:48.487Z,15.85
2023-04-17T07:26:17.980Z,14.30
2023-04-17T07:28:51.309Z,14.80
2023-04-17T07:31:19.403Z,17.00
2023-04-17T07:33:47.533Z,13.50
2023-04-17T07:36:15.806Z,15.35
2023-04-17T07:38:43.898Z,14.15
2023-04-17T07:41:14.020Z,14.73
2023-04-17T07:43:43.755Z,15.43
2023-04-17T07:46:11.988Z,13.70
2023-04-17T07:48:41.427Z,13.70
2023-04-17T07:51:09.609Z,12.93
2023-04-17T07:53:38.732Z,14.70
2023-04-17T07:56:07.061Z,14.82
2023-04-17T07:58:36.653Z,13.40
2023-04-17T08:01:06.685Z,15.05
2023-04-17T08:03:35.575Z,15.15
2023-04-17T08:06:04.065Z,15.70
2023-04-17T08:08:33.456Z,15.45
2023-04-17T08:11:01.543Z,16.58
2023-04-17T08:13:32.917Z,15.60
2023-04-17T08:16:01.694Z,13.60
2023-04-17T08:18:32.431Z,13.63
2023-04-17T08:21:01.760Z,13.63
2023-04-17T08:23:30.208Z,12.80
2023-04-17T08:25:58.423Z,16.40
2023-04-17T08:28:26.478Z,12.98
2023-04-17T08:30:54.607Z,14.30
2023-04-17T08:33:23.010Z,15.07
2023-04-17T08:35:54.270Z,14.35
2023-04-17T08:38:22.508Z,15.63
2023-04-17T08:40:52.179Z,15.77
2023-04-17T08:43:21.171Z,13.88
2023-04-17T08:45:54.348Z,16.02
2023-04-17T08:48:23.386Z,12.95
2023-04-17T08:50:54.812Z,12.25
2023-04-17T08:53:23.097Z,12.95
2023-04-17T08:55:51.540Z,14.25
2023-04-17T08:58:21.987Z,13.80
2023-04-17T09:00:50.384Z,13.55
2023-04-17T09:03:18.945Z,15.90
2023-04-17T09:05:48.609Z,14.45
2023-04-17T09:08:21.098Z,14.07
2023-04-17T09:10:50.585Z,11.80
2023-04-17T09:13:20.760Z,12.85
2023-04-17T09:16:05.124Z,10.27
2023-04-17T09:18:34.457Z,11.45
2023-04-17T09:21:04.523Z,12.15
2023-04-17T09:23:49.558Z,12.30
2023-04-17T09:26:19.717Z,12.15
2023-04-17T09:29:06.737Z,11.65
2023-04-17T09:31:37.503Z,12.48
2023-04-17T09:34:07.613Z,11.32
2023-04-17T09:36:38.383Z,13.43
2023-04-17T09:39:21.062Z,11.38
2023-04-17T09:41:49.361Z,11.25
2023-04-17T09:44:27.025Z,12.40
2023-04-17T09:46:55.800Z,12.98
2023-04-17T09:49:29.353Z,12.40
2023-04-17T09:51:59.384Z,11.90
2023-04-17T09:54:31.497Z,11.60
2023-04-17T09:56:59.850Z,10.98
2023-04-17T09:59:28.719Z,10.38
2023-04-17T10:01:57.508Z,11.95
2023-04-17T10:04:26.055Z,11.73
2023-04-17T10:06:57.573Z,10.50
2023-04-17T10:09:26.925Z,11.80
2023-04-17T10:11:57.663Z,11.82
2023-04-17T10:14:28.644Z,10.30
2023-04-17T10:17:00.218Z,9.55
2023-04-17T10:19:32.761Z,11.15
2023-04-17T10:22:41.017Z,10.02
2023-04-17T10:25:20.207Z,11.60
2023-04-17T10:27:54.733Z,10.30
2023-04-17T10:30:24.310Z,9.48
2023-04-17T10:33:26.066Z,9.68
2023-04-17T10:35:55.109Z,8.25
2023-04-17T10:38:34.652Z,8.38
2023-04-17T10:41:11.417Z,7.70
2023-04-17T10:43:45.559Z,7.65
2023-04-17T10:46:15.393Z,8.30
2023-04-17T10:48:49.553Z,7.97
2023-04-17T10:51:43.690Z,7.40
2023-04-17T10:54:15.656Z,7.53
2023-04-17T10:56:46.388Z,7.32
2023-04-17T10:59:17.274Z,8.43
2023-04-17T11:02:01.174Z,6.35
2023-04-17T11:04:32.106Z,6.93
2023-04-17T11:07:00.815Z,5.88
2023-04-17T11:09:30.790Z,5.93
2023-04-17T11:12:05.329Z,6.78
2023-04-17T11:14:35.137Z,6.47
2023-04-17T11:17:03.505Z,6.80
2023-04-17T11:19:33.721Z,6.13
2023-04-17T11:22:02.915Z,6.35
2023-04-17T11:24:32.544Z,5.60
2023-04-17T11:27:02.154Z,6.10
2023-04-17T11:29:30.742Z,5.47
2023-04-17T11:32:03.223Z,5.80
2023-04-17T11:34:31.864Z,7.28
2023-04-17T11:37:02.335Z,5.40
2023-04-17T11:39:33.842Z,7.90
2023-04-17T11:42:04.205Z,6.43
2023-04-17T11:44:32.395Z,6.30
2023-04-17T11:47:04.112Z,7.03
2023-04-17T11:49:34.423Z,5.90
2023-04-17T11:52:04.250Z,8.00
2023-04-17T11:54:37.175Z,7.90
2023-04-17T11:57:07.113Z,7.45
2023-04-17T11:59:38.058Z,7.40
2023-04-17T12:02:09.285Z,9.27
2023-04-17T12:04:39.873Z,7.65
2023-04-17T12:07:10.036Z,7.00
2023-04-17T12:09:38.363Z,6.05
2023-04-17T12:12:08.098Z,5.82
2023-04-17T12:14:36.846Z,6.60
2023-04-17T12:17:04.985Z,7.15
2023-04-17T12:19:34.531Z,7.75
2023-04-17T12:22:02.994Z,7.03
2023-04-17T12:24:31.434Z,5.65
2023-04-17T12:27:02.503Z,7.53
2023-04-17T12:29:43.100Z,7.03
2023-04-17T12:32:12.869Z,9.52
2023-04-17T12:34:42.460Z,7.35
2023-04-17T12:37:10.632Z,7.90
2023-04-17T12:39:41.600Z,8.13
2023-04-17T12:42:10.060Z,7.85
2023-04-17T12:47:09.360Z,9.52
2023-04-17T12:49:37.625Z,7.32
2023-04-17T12:52:07.213Z,7.63
2023-04-17T12:54:35.988Z,9.05
2023-04-17T12:57:04.734Z,8.35
2023-04-17T12:59:33.521Z,7.13
2023-04-17T13:02:02.433Z,7.30
2023-04-17T13:04:32.493Z,8.65
2023-04-17T13:07:00.911Z,7.85
2023-04-17T13:09:30.327Z,7.47
2023-04-17T13:11:58.736Z,8.85
2023-04-17T13:14:27.418Z,7.45
2023-04-17T13:16:55.692Z,9.25
2023-04-17T13:19:24.066Z,8.35
2023-04-17T13:21:53.145Z,8.20
2023-04-17T13:24:21.605Z,7.63
2023-04-17T13:26:54.026Z,7.75
2023-04-17T13:29:23.012Z,7.72
2023-04-17T13:31:51.349Z,8.32
2023-04-17T13:34:19.758Z,9.98
2023-04-17T13:36:48.000Z,10.13
2023-04-17T13:39:16.234Z,10.10
2023-04-17T13:41:44.391Z,8.50
2023-04-17T13:44:14.785Z,9.15
2023-04-17T13:46:44.217Z,7.93
2023-04-17T13:49:13.305Z,7.50
2023-04-17T13:51:41.854Z,8.90
2023-04-17T13:54:10.620Z,6.85
2023-04-17T13:56:39.036Z,7.95
2023-04-17T13:59:07.475Z,7.82
2023-04-17T14:01:37.142Z,7.47
2023-04-17T14:04:06.280Z,7.93
2023-04-17T14:06:59.638Z,6.35
2023-04-17T14:09:34.451Z,7.13
2023-04-17T14:12:03.052Z,6.95
2023-04-17T14:14:31.423Z,7.88
2023-04-17T14:17:01.538Z,6.80
2023-04-17T14:19:29.828Z,7.22
2023-04-17T14:21:57.981Z,6.65
2023-04-17T14:24:26.220Z,6.40
2023-04-17T14:26:54.612Z,7.22
2023-04-17T14:29:22.905Z,7.53
2023-04-17T14:31:51.271Z,6.55
2023-04-17T14:34:21.046Z,6.00
2023-04-17T14:36:51.331Z,7.90
2023-04-17T14:39:19.788Z,8.05
2023-04-17T14:41:48.139Z,7.25
2023-04-17T14:44:16.427Z,7.63
2023-04-17T14:46:44.731Z,7.70
2023-04-17T14:49:13.231Z,6.53
2023-04-17T14:51:42.843Z,7.47
2023-04-17T14:54:10.933Z,7.40
2023-04-17T14:56:39.097Z,6.07
2023-04-17T14:59:07.276Z,5.40
2023-04-17T15:01:35.513Z,7.53
2023-04-17T15:04:04.574Z,7.75
2023-04-17T15:06:32.623Z,6.60
2023-04-17T15:09:04.222Z,7.40
2023-04-17T15:11:32.326Z,6.00
2023-04-17T15:14:00.452Z,6.35
2023-04-17T15:16:28.753Z,6.97
2023-04-17T15:18:56.879Z,6.28
2023-04-17T15:21:24.981Z,6.65
2023-04-17T15:23:53.068Z,7.60
2023-04-17T15:26:22.997Z,8.05
2023-04-17T15:28:51.333Z,9.05
2023-04-17T15:31:19.747Z,7.43
2023-04-17T15:33:47.943Z,7.05
2023-04-17T15:36:16.230Z,6.38
2023-04-17T15:38:44.629Z,8.43
2023-04-17T15:41:13.703Z,7.00
2023-04-17T15:43:43.353Z,7.70
2023-04-17T15:46:11.636Z,7.40
2023-04-17T15:48:39.894Z,7.60
2023-04-17T15:51:07.993Z,7.38
2023-04-17T15:53:36.201Z,7.63
2023-04-17T15:56:06.828Z,9.48
2023-04-17T15:58:36.000Z,6.93
2023-04-17T16:01:05.674Z,9.75
2023-04-17T16:03:33.967Z,9.57
2023-04-17T16:06:02.481Z,8.65
2023-04-17T16:08:30.818Z,8.80
2023-04-17T16:10:59.860Z,8.88
2023-04-17T16:13:27.962Z,11.13
2023-04-17T16:15:56.289Z,11.10
2023-04-17T16:18:25.936Z,13.65
2023-04-17T16:20:54.085Z,11.90
2023-04-17T16:23:22.340Z,10.90
2023-04-17T16:25:51.353Z,10.68
2023-04-17T16:28:19.445Z,8.85
2023-04-17T16:30:48.060Z,7.68
2023-04-17T16:33:16.378Z,9.57
2023-04-17T16:35:46.014Z,9.73
2023-04-17T16:38:14.344Z,9.82
2023-04-17T16:40:42.661Z,9.88
2023-04-17T16:43:11.048Z,8.60
2023-04-17T16:45:39.129Z,6.85
2023-04-17T16:48:09.172Z,6.07
2023-04-17T16:50:37.478Z,6.70
2023-04-17T16:53:07.201Z,6.80
2023-04-17T16:55:37.676Z,7.03
2023-04-17T16:58:05.877Z,5.97
2023-04-17T17:00:34.180Z,8.23
2023-04-17T17:03:02.356Z,7.18
2023-04-17T17:05:30.625Z,6.70
2023-04-17T17:08:01.275Z,6.03
2023-04-17T17:10:30.863Z,5.75
2023-04-17T17:12:59.254Z,6.30
2023-04-17T17:15:27.447Z,5.50
2023-04-17T17:17:55.828Z,5.25
2023-04-17T17:20:23.922Z,5.95
2023-04-17T17:22:52.061Z,18.15
2023-04-17T17:25:20.451Z,8.48
2023-04-17T17:27:50.166Z,6.82
2023-04-17T17:30:18.505Z,6.15
2023-04-17T17:32:49.284Z,8.18
2023-04-17T17:35:17.434Z,5.45
2023-04-17T17:37:47.812Z,6.97
2023-04-17T17:40:16.112Z,6.55
2023-04-17T17:42:45.245Z,4.47
2023-04-17T17:45:14.802Z,4.82
2023-04-17T17:47:42.968Z,4.90
2023-04-17T17:50:11.527Z,4.90
2023-04-17T17:52:39.783Z,6.03
2023-04-17T17:55:08.524Z,4.85
2023-04-17T17:57:48.302Z,4.60
2023-04-17T18:00:19.854Z,4.45
2023-04-17T18:02:48.121Z,3.85
2023-04-17T18:05:16.313Z,4.20
2023-04-17T18:07:44.680Z,5.30
2023-04-17T18:10:12.870Z,5.10
2023-04-17T18:12:41.056Z,4.72
2023-04-17T18:15:10.265Z,3.60
2023-04-17T18:17:39.910Z,4.60
2023-04-17T18:20:10.756Z,3.67
2023-04-17T18:22:39.115Z,3.22
2023-04-17T18:25:08.052Z,3.22
2023-04-17T18:27:37.093Z,3.78
2023-04-17T18:30:06.701Z,3.05
2023-04-17T18:32:35.148Z,3.40
2023-04-17T18:35:05.322Z,3.30
2023-04-17T18:37:35.788Z,4.15
2023-04-17T18:40:05.700Z,3.83
2023-04-17T18:42:34.058Z,3.58
2023-04-17T18:45:02.241Z,4.07
2023-04-17T18:47:30.316Z,3.30
2023-04-17T18:49:58.479Z,3.78
2023-04-17T18:52:31.516Z,3.25
2023-04-17T18:55:09.413Z,4.50
2023-04-17T18:57:42.324Z,4.00
2023-04-17T19:00:14.264Z,10.15
2023-04-17T19:02:48.458Z,7.47
2023-04-17T19:05:22.672Z,4.43
2023-04-17T19:07:58.372Z,4.70
2023-04-17T19:10:29.987Z,5.15
2023-04-17T19:12:58.380Z,5.68
2023-04-17T19:15:31.851Z,6.45
2023-04-17T19:18:07.591Z,6.30
2023-04-17T19:20:45.673Z,6.25
2023-04-17T19:23:23.768Z,7.55
2023-04-17T19:26:02.433Z,7.43
2023-04-17T19:28:40.961Z,7.78
2023-04-17T19:31:19.758Z,7.95
2023-04-17T19:33:59.818Z,7.15
2023-04-17T19:36:36.900Z,6.90
2023-04-17T19:39:19.845Z,8.25
2023-04-17T19:41:58.154Z,7.53
2023-04-17T19:44:34.720Z,7.70
2023-04-17T19:47:12.693Z,7.07
2023-04-17T19:49:48.871Z,7.70
2023-04-17T19:52:24.594Z,7.72
2023-04-17T19:55:04.574Z,7.35
2023-04-17T19:57:41.019Z,7.60
2023-04-17T20:00:19.296Z,7.72
2023-04-17T20:02:56.575Z,7.40
2023-04-17T20:05:33.041Z,6.53
2023-04-17T20:08:13.119Z,7.63
2023-04-17T20:10:52.344Z,7.45
2023-04-17T20:13:30.568Z,6.47
2023-04-17T20:16:07.485Z,7.30
2023-04-17T20:18:45.991Z,6.63
2023-04-17T20:21:26.519Z,7.05
2023-04-17T20:24:04.181Z,7.20
2023-04-17T20:26:42.594Z,7.82
2023-04-17T20:29:20.580Z,7.85
2023-04-17T20:31:57.534Z,8.05
2023-04-17T20:34:35.816Z,8.40
2023-04-17T20:37:11.345Z,8.52
2023-04-17T20:39:45.203Z,9.43
2023-04-17T20:42:20.452Z,8.23
2023-04-17T20:44:48.688Z,8.55
2023-04-17T20:47:16.894Z,8.43
2023-04-17T20:49:45.437Z,9.00
2023-04-17T20:52:13.982Z,9.07
2023-04-17T20:54:42.288Z,7.88
2023-04-17T20:57:10.438Z,8.10
2023-04-17T20:59:39.984Z,8.95
2023-04-17T21:02:08.815Z,8.38
2023-04-17T21:04:37.103Z,10.35
2023-04-17T21:07:05.246Z,8.05
2023-04-17T21:09:34.031Z,9.10
2023-04-17T21:12:02.875Z,9.15
2023-04-17T21:14:33.578Z,9.15
2023-04-17T21:17:03.088Z,7.82
2023-04-17T21:19:32.335Z,7.95
2023-04-17T21:22:00.476Z,7.55
2023-04-17T21:24:29.648Z,8.95
2023-04-17T21:26:59.691Z,9.10
2023-04-17T21:29:29.471Z,7.95
2023-04-17T21:31:57.932Z,8.90
2023-04-17T21:34:27.704Z,9.82
2023-04-17T21:36:55.939Z,9.40
2023-04-17T21:39:24.205Z,9.07
2023-04-17T21:41:52.331Z,9.07
2023-04-17T21:44:20.396Z,8.80
2023-04-17T21:46:48.557Z,8.88
2023-04-17T21:49:16.691Z,9.13
2023-04-17T21:51:46.297Z,9.15
2023-04-17T21:54:14.768Z,9.30
2023-04-17T21:56:43.203Z,8.73
2023-04-17T21:59:12.015Z,9.55
2023-04-17T22:01:40.208Z,11.35
2023-04-17T22:04:08.448Z,11.00
2023-04-17T22:06:37.020Z,10.63
2023-04-17T22:09:06.603Z,11.85
2023-04-17T22:11:34.790Z,10.02
2023-04-17T22:14:03.239Z,11.43
2023-04-17T22:16:31.567Z,10.23
2023-04-17T22:18:59.898Z,10.45
2023-04-17T22:21:28.144Z,10.70
2023-04-17T22:23:56.285Z,11.35
2023-04-17T22:26:26.952Z,9.63
2023-04-17T22:28:55.096Z,10.13
2023-04-17T22:31:23.334Z,11.88
2023-04-17T22:33:51.460Z,10.07
2023-04-17T22:36:19.615Z,12.25
2023-04-17T22:38:47.802Z,10.57
2023-04-17T22:41:15.930Z,10.35
2023-04-17T22:43:48.967Z,10.48
2023-04-17T22:46:17.203Z,10.13
2023-04-17T22:48:45.672Z,11.10
2023-04-17T22:51:15.126Z,11.88
2023-04-17T22:53:44.783Z,11.27
2023-04-17T22:56:14.035Z,11.15
2023-04-17T22:58:42.154Z,10.43
2023-04-17T23:01:16.722Z,10.07
2023-04-17T23:03:44.913Z,12.88
2023-04-17T23:06:13.046Z,12.30
2023-04-17T23:08:41.153Z,12.35
2023-04-17T23:11:22.296Z,13.40
2023-04-17T23:13:50.446Z,14.80
2023-04-17T23:16:20.047Z,13.43
2023-04-17T23:18:48.147Z,13.70
2023-04-17T23:21:16.620Z,14.25
2023-04-17T23:23:48.503Z,15.27
2023-04-17T23:26:16.878Z,12.70
2023-04-17T23:28:45.386Z,13.18
2023-04-17T23:31:13.634Z,13.45
2023-04-17T23:33:43.119Z,12.80
2023-04-17T23:36:11.383Z,13.48
2023-04-17T23:38:39.572Z,13.98
2023-04-17T23:41:07.837Z,14.15
2023-04-17T23:43:35.844Z,15.30
2023-04-17T23:46:04.017Z,13.88
2023-04-17T23:48:32.178Z,16.38
2023-04-17T23:51:03.632Z,15.38
2023-04-17T23:53:34.252Z,15.80
2023-04-17T23:56:02.368Z,14.70
2023-04-17T23:58:30.483Z,16.27
